Time;durP1;ratioP1;P1;durP2;ratioP2;P2;SDS_P1;SDS_P2;PMS_P1;PMS_P2;Temp;Humidity;BMP_temperature;BMP_pressure;BME280_temperature;BME280_humidity;BME280_pressure;Samples;Min_cycle;Max_cycle;Signal;HPM_P1;HPM_P2
2021/07/08 00:00:44;;;;;;;4.07;2.55;;;;;;;16.84;72.25;101612.66;5050195;28;20063;-70
2021/07/08 00:03:10;;;;;;;5.70;2.67;;;;;;;16.80;72.70;101621.00;5051377;28;20098;-70
2021/07/08 00:05:38;;;;;;;7.45;2.17;;;;;;;16.80;71.91;101624.47;5070399;28;20029;-70
2021/07/08 00:08:05;;;;;;;5.53;2.47;;;;;;;16.71;72.26;101628.94;5050978;28;20029;-70
2021/07/08 00:10:34;;;;;;;6.70;2.40;;;;;;;16.64;72.96;101624.59;5050932;28;20021;-70
2021/07/08 00:13:01;;;;;;;4.85;2.38;;;;;;;16.59;73.50;101621.69;5065553;28;20430;-70
2021/07/08 00:15:28;;;;;;;3.78;2.42;;;;;;;16.60;73.55;101611.03;5047268;28;20092;-70
2021/07/08 00:17:55;;;;;;;11.10;3.40;;;;;;;16.67;73.18;101622.44;5054324;28;20107;-70
2021/07/08 00:20:23;;;;;;;3.33;2.38;;;;;;;16.71;72.99;101618.47;5052287;28;20082;-70
2021/07/08 00:22:49;;;;;;;6.07;2.67;;;;;;;16.78;72.65;101612.53;5060581;28;20513;-70
2021/07/08 00:25:19;;;;;;;6.65;2.53;;;;;;;16.79;72.72;101611.53;5049999;28;20146;-71
2021/07/08 00:27:44;;;;;;;6.65;2.85;;;;;;;16.80;72.62;101608.75;5043388;28;20029;-71
2021/07/08 00:30:11;;;;;;;4.03;2.15;;;;;;;16.83;72.48;101618.06;5049362;28;20044;-70
2021/07/08 00:32:37;;;;;;;3.45;2.75;;;;;;;16.86;72.21;101612.50;5051830;28;20174;-71
2021/07/08 00:35:04;;;;;;;3.08;2.42;;;;;;;16.88;72.16;101613.94;5065346;28;20388;-71
2021/07/08 00:37:29;;;;;;;5.75;2.30;;;;;;;16.90;72.11;101614.56;5042683;28;20376;-71
2021/07/08 00:39:55;;;;;;;3.95;2.75;;;;;;;16.92;72.03;101627.50;5049303;28;20044;-70
2021/07/08 00:42:20;;;;;;;6.00;3.63;;;;;;;16.86;72.11;101622.97;5050643;28;20025;-70
2021/07/08 00:44:46;;;;;;;4.30;2.78;;;;;;;16.79;72.21;101625.44;5055452;28;20028;-70
2021/07/08 00:47:11;;;;;;;5.45;3.08;;;;;;;16.64;72.77;101635.06;5057171;28;20037;-70
2021/07/08 00:49:37;;;;;;;5.35;2.55;;;;;;;16.58;73.19;101633.16;5060335;28;20029;-71
2021/07/08 00:52:04;;;;;;;6.05;2.55;;;;;;;16.52;73.37;101627.63;5038166;28;20535;-70
2021/07/08 00:54:30;;;;;;;5.80;3.42;;;;;;;16.50;73.38;101632.22;5049860;28;20071;-70
2021/07/08 00:56:55;;;;;;;3.55;2.33;;;;;;;16.51;73.35;101631.22;5058264;28;20032;-71
2021/07/08 00:59:21;;;;;;;3.13;2.35;;;;;;;16.51;73.20;101627.78;5066086;28;20441;-70
2021/07/08 01:01:47;;;;;;;5.70;2.60;;;;;;;16.45;73.28;101631.91;5049523;28;20127;-70
2021/07/08 01:04:14;;;;;;;7.55;2.72;;;;;;;16.41;73.42;101628.03;5049555;28;20067;-70
2021/07/08 01:06:45;;;;;;;4.30;2.47;;;;;;;16.42;73.24;101634.06;5051251;28;20099;-71
2021/07/08 01:09:12;;;;;;;7.40;2.60;;;;;;;16.44;73.16;101637.31;5050804;28;20170;-71
2021/07/08 01:11:39;;;;;;;5.55;2.58;;;;;;;16.46;73.00;101643.19;5049666;28;20098;-71
2021/07/08 01:14:08;;;;;;;4.22;2.50;;;;;;;16.47;72.87;101632.56;5037658;28;20500;-70
2021/07/08 01:16:35;;;;;;;4.40;2.10;;;;;;;16.48;72.97;101638.59;5056217;28;20497;-71
2021/07/08 01:19:03;;;;;;;6.00;2.42;;;;;;;16.48;73.12;101635.97;5053445;28;20017;-71
2021/07/08 01:21:31;;;;;;;4.22;2.63;;;;;;;16.48;72.99;101628.97;5052554;28;20379;-71
2021/07/08 01:23:59;;;;;;;5.05;2.38;;;;;;;16.48;73.09;101623.72;5052005;28;20112;-71
2021/07/08 01:26:25;;;;;;;6.28;2.50;;;;;;;16.46;73.09;101622.25;5032731;28;20075;-71
2021/07/08 01:28:52;;;;;;;5.55;2.50;;;;;;;16.42;73.26;101613.94;5028156;28;20031;-71
2021/07/08 01:31:19;;;;;;;7.88;2.53;;;;;;;16.42;73.17;101610.50;5054235;28;20056;-71
2021/07/08 01:33:45;;;;;;;4.55;2.67;;;;;;;16.39;72.88;101603.84;5048670;28;20024;-71
2021/07/08 01:36:12;;;;;;;3.47;2.42;;;;;;;16.27;73.43;101599.97;5050258;28;20529;-71
2021/07/08 01:38:37;;;;;;;4.05;2.20;;;;;;;16.18;73.75;101601.84;5054485;28;20033;-71
2021/07/08 01:41:04;;;;;;;3.53;2.80;;;;;;;16.09;73.97;101598.47;5048027;28;20509;-70
2021/07/08 01:43:34;;;;;;;4.65;2.42;;;;;;;15.97;74.23;101599.84;5064460;28;20111;-70
2021/07/08 01:45:59;;;;;;;4.45;2.90;;;;;;;15.88;74.87;101595.63;5050626;28;20070;-71
2021/07/08 01:48:25;;;;;;;4.78;2.30;;;;;;;15.86;74.75;101603.66;5049709;28;20043;-71
2021/07/08 01:50:50;;;;;;;3.15;2.15;;;;;;;15.87;75.05;101599.25;5038822;28;20020;-70
2021/07/08 01:53:16;;;;;;;5.47;2.63;;;;;;;15.91;74.76;101595.31;5048310;28;20029;-71
2021/07/08 01:55:42;;;;;;;3.45;2.35;;;;;;;15.96;74.50;101599.03;5047189;28;20029;-71
2021/07/08 01:58:07;;;;;;;5.55;2.58;;;;;;;16.02;74.14;101601.94;5030819;28;20025;-71
2021/07/08 02:00:33;;;;;;;5.15;3.00;;;;;;;16.05;74.00;101602.41;5056980;28;20497;-71
2021/07/08 02:02:58;;;;;;;5.07;2.60;;;;;;;16.07;73.83;101607.50;5069104;28;20110;-71
2021/07/08 02:05:24;;;;;;;4.10;2.50;;;;;;;16.07;73.59;101597.84;5052678;28;20033;-71
2021/07/08 02:07:50;;;;;;;6.10;2.35;;;;;;;16.04;74.13;101595.56;5049431;28;20544;-71
2021/07/08 02:10:17;;;;;;;4.80;2.35;;;;;;;15.96;74.28;101608.69;5050172;28;20036;-71
2021/07/08 02:12:45;;;;;;;5.68;3.20;;;;;;;15.91;74.44;101608.38;5047602;28;20057;-71
2021/07/08 02:15:12;;;;;;;5.45;2.70;;;;;;;15.85;74.57;101607.25;5047021;28;20067;-71
2021/07/08 02:17:38;;;;;;;5.18;2.13;;;;;;;15.81;74.78;101613.81;5050147;28;20048;-71
2021/07/08 02:20:10;;;;;;;17.35;3.47;;;;;;;15.79;74.90;101618.41;5049556;28;20063;-70
2021/07/08 02:22:36;;;;;;;3.30;2.38;;;;;;;15.81;74.96;101623.47;5041537;28;20063;-71
2021/07/08 02:25:03;;;;;;;6.60;2.20;;;;;;;15.81;75.00;101610.41;5070243;28;20039;-71
2021/07/08 02:27:29;;;;;;;2.90;2.17;;;;;;;15.82;74.99;101622.47;5048962;28;20402;-72
2021/07/08 02:29:54;;;;;;;2.53;2.17;;;;;;;15.83;75.16;101627.53;5048372;28;20029;-72
2021/07/08 02:32:20;;;;;;;6.57;2.63;;;;;;;15.84;74.78;101623.13;5047492;28;20041;-71
2021/07/08 02:34:48;;;;;;;4.40;2.40;;;;;;;15.85;74.68;101627.38;5055229;28;20048;-72
2021/07/08 02:37:14;;;;;;;6.07;2.78;;;;;;;15.79;74.87;101620.22;5049482;28;20415;-71
2021/07/08 02:39:39;;;;;;;4.35;2.60;;;;;;;15.71;75.23;101621.03;5065289;28;20067;-71
2021/07/08 02:42:05;;;;;;;8.60;2.53;;;;;;;15.57;75.65;101627.78;5048717;28;20056;-71
2021/07/08 02:44:32;;;;;;;6.38;2.72;;;;;;;15.56;75.74;101628.78;5046397;28;20264;-71
2021/07/08 02:46:57;;;;;;;3.50;2.35;;;;;;;15.56;75.45;101620.94;5045492;28;20513;-71
2021/07/08 02:49:24;;;;;;;16.35;3.42;;;;;;;15.54;75.58;101630.75;5046582;28;20025;-71
2021/07/08 02:51:49;;;;;;;11.35;3.17;;;;;;;15.49;75.73;101620.78;5068560;28;20102;-70
2021/07/08 02:54:15;;;;;;;3.95;2.60;;;;;;;15.42;76.23;101627.66;5048964;28;20041;-72
2021/07/08 02:56:40;;;;;;;4.72;2.45;;;;;;;15.40;76.06;101628.81;5047881;28;20071;-71
2021/07/08 02:59:06;;;;;;;5.15;2.50;;;;;;;15.41;76.07;101627.81;5062291;28;20025;-71
2021/07/08 03:01:31;;;;;;;6.88;2.47;;;;;;;15.44;75.53;101627.50;5063280;28;20441;-71
2021/07/08 03:03:57;;;;;;;3.80;2.75;;;;;;;15.47;75.45;101619.31;5029969;28;20021;-71
2021/07/08 03:06:22;;;;;;;4.28;2.83;;;;;;;15.49;75.28;101622.59;5043293;28;20028;-71
2021/07/08 03:08:48;;;;;;;5.10;2.80;;;;;;;15.50;75.22;101632.88;5046930;28;20032;-72
2021/07/08 03:11:13;;;;;;;7.65;2.60;;;;;;;15.49;75.04;101626.00;5056899;28;20016;-72
2021/07/08 03:13:39;;;;;;;8.77;2.67;;;;;;;15.50;75.22;101629.41;5069645;28;20107;-72
2021/07/08 03:16:06;;;;;;;4.57;2.60;;;;;;;15.45;75.55;101634.34;5050408;28;20020;-72
2021/07/08 03:18:31;;;;;;;5.50;2.83;;;;;;;15.44;75.58;101625.69;5052216;28;20063;-73
2021/07/08 03:20:57;;;;;;;11.57;2.50;;;;;;;15.43;75.32;101631.09;5053024;28;20017;-72
2021/07/08 03:23:22;;;;;;;7.20;2.70;;;;;;;15.35;75.53;101632.75;5047545;28;20163;-72
2021/07/08 03:25:48;;;;;;;7.68;2.78;;;;;;;15.32;75.76;101642.72;5050972;28;20265;-72
2021/07/08 03:28:14;;;;;;;5.85;2.75;;;;;;;15.29;75.75;101646.44;5066020;28;20037;-72
2021/07/08 03:30:40;;;;;;;6.18;2.75;;;;;;;15.24;75.86;101643.53;5048293;28;20036;-72
2021/07/08 03:33:06;;;;;;;7.30;3.42;;;;;;;15.18;76.24;101647.63;5054594;28;20522;-72
2021/07/08 03:35:32;;;;;;;11.73;3.15;;;;;;;15.14;76.16;101648.94;5056513;28;20540;-71
2021/07/08 03:37:58;;;;;;;7.55;2.92;;;;;;;15.06;75.79;101653.34;5051529;28;20033;-71
2021/07/08 03:40:26;;;;;;;9.07;2.97;;;;;;;15.04;77.15;101655.31;5052579;28;20241;-70
2021/07/08 03:42:52;;;;;;;8.15;3.03;;;;;;;14.73;78.24;101648.13;5048361;28;20021;-71
2021/07/08 03:45:18;;;;;;;9.95;2.88;;;;;;;14.62;79.06;101645.84;5053587;28;20581;-71
2021/07/08 03:47:45;;;;;;;7.82;2.88;;;;;;;14.65;78.99;101650.75;5072799;28;20060;-71
2021/07/08 03:50:11;;;;;;;10.45;3.50;;;;;;;14.66;78.67;101647.16;5053986;28;20048;-71
2021/07/08 03:52:42;;;;;;;4.78;2.60;;;;;;;14.67;78.60;101654.81;5049944;28;20387;-71
2021/07/08 03:55:28;;;;;;;10.57;3.00;;;;;;;14.73;78.16;101656.81;5032280;28;20044;-71
2021/07/08 03:57:53;;;;;;;9.27;3.20;;;;;;;14.75;77.75;101659.25;5045251;28;20048;-70
2021/07/08 04:00:40;;;;;;;7.00;2.80;;;;;;;14.73;77.96;101666.41;5054151;28;20048;-71
2021/07/08 04:03:09;;;;;;;7.95;2.90;;;;;;;14.76;77.80;101669.50;5049361;28;20316;-71
2021/07/08 04:05:35;;;;;;;6.40;2.60;;;;;;;14.82;77.67;101669.84;5050754;28;20437;-71
2021/07/08 04:08:02;;;;;;;5.72;2.90;;;;;;;14.82;77.66;101664.63;5056013;28;20029;-71
2021/07/08 04:10:28;;;;;;;11.57;2.92;;;;;;;14.85;77.81;101662.50;5064097;28;20068;-71
2021/07/08 04:12:55;;;;;;;8.43;2.90;;;;;;;14.87;77.58;101663.16;5056716;28;20036;-71
2021/07/08 04:15:21;;;;;;;7.25;2.50;;;;;;;14.91;77.47;101661.03;5056001;28;20499;-71
2021/07/08 04:17:47;;;;;;;3.72;2.65;;;;;;;14.92;77.72;101660.06;5055961;28;20033;-71
2021/07/08 04:20:15;;;;;;;6.75;3.00;;;;;;;14.91;77.91;101659.22;5057552;28;20448;-71
2021/07/08 04:22:41;;;;;;;11.02;3.10;;;;;;;14.95;78.15;101660.53;5074048;28;20475;-71
2021/07/08 04:25:08;;;;;;;9.23;3.72;;;;;;;14.95;78.36;101667.56;5052883;28;20032;-72
2021/07/08 04:27:35;;;;;;;9.23;3.70;;;;;;;14.95;78.51;101665.75;5050937;28;20059;-71
2021/07/08 04:30:03;;;;;;;6.72;2.92;;;;;;;14.97;78.80;101661.22;5070121;28;20252;-71
2021/07/08 04:32:28;;;;;;;7.90;3.50;;;;;;;15.04;78.77;101668.38;5060233;28;20025;-71
2021/07/08 04:34:54;;;;;;;4.25;2.72;;;;;;;15.11;78.14;101670.16;5047041;28;20036;-70
2021/07/08 04:37:20;;;;;;;11.15;3.13;;;;;;;15.16;77.84;101672.28;5055779;28;20048;-71
2021/07/08 04:39:45;;;;;;;6.38;3.60;;;;;;;15.19;77.93;101680.59;5053209;28;20033;-72
2021/07/08 04:42:11;;;;;;;9.60;3.30;;;;;;;15.23;78.06;101675.06;5051582;28;20116;-71
2021/07/08 04:44:37;;;;;;;8.93;3.15;;;;;;;15.26;77.79;101679.97;5054418;28;20040;-71
2021/07/08 04:47:04;;;;;;;7.72;2.97;;;;;;;15.30;77.73;101676.84;5064720;28;20119;-71
2021/07/08 04:49:30;;;;;;;7.70;2.80;;;;;;;15.34;77.83;101670.28;5048648;28;20094;-71
2021/07/08 04:51:55;;;;;;;6.45;2.78;;;;;;;15.39;77.84;101661.97;5055765;28;20029;-71
2021/07/08 04:54:21;;;;;;;6.38;2.83;;;;;;;15.43;78.17;101665.06;5049325;28;20037;-71
2021/07/08 04:56:46;;;;;;;8.77;2.90;;;;;;;15.46;78.32;101662.91;5065153;28;20036;-70
2021/07/08 04:59:12;;;;;;;6.57;3.30;;;;;;;15.51;78.22;101670.28;5049434;28;20078;-71
2021/07/08 05:01:37;;;;;;;5.32;3.22;;;;;;;15.55;77.88;101669.75;5049594;28;20021;-71
2021/07/08 05:04:03;;;;;;;12.27;4.07;;;;;;;15.64;78.43;101681.00;5048257;28;20478;-71
2021/07/08 05:06:29;;;;;;;14.82;3.70;;;;;;;15.56;78.55;101681.84;5044568;28;20391;-70
2021/07/08 05:08:54;;;;;;;7.60;3.42;;;;;;;15.50;79.13;101677.31;5054295;28;20028;-71
2021/07/08 05:11:20;;;;;;;8.23;3.55;;;;;;;15.51;78.92;101667.66;5050624;28;20029;-71
2021/07/08 05:13:45;;;;;;;8.15;3.72;;;;;;;15.57;78.88;101670.41;5070155;28;20025;-71
2021/07/08 05:16:10;;;;;;;13.90;5.13;;;;;;;15.70;77.87;101667.25;5032481;28;20029;-71
2021/07/08 05:18:36;;;;;;;10.18;4.15;;;;;;;15.74;77.70;101665.97;5051094;28;20168;-70
2021/07/08 05:21:02;;;;;;;7.25;3.92;;;;;;;15.70;78.09;101672.50;5033547;28;20033;-71
2021/07/08 05:23:29;;;;;;;11.32;3.60;;;;;;;15.70;78.51;101666.47;5053853;28;20526;-71
2021/07/08 05:25:55;;;;;;;6.22;3.13;;;;;;;15.76;78.13;101666.63;5039638;28;20043;-71
2021/07/08 05:28:20;;;;;;;13.98;4.68;;;;;;;15.82;78.26;101664.31;5053378;28;20033;-71
2021/07/08 05:30:46;;;;;;;5.78;3.05;;;;;;;15.89;78.36;101666.06;5050454;28;20036;-70
2021/07/08 05:33:11;;;;;;;8.20;3.78;;;;;;;15.97;78.05;101662.59;5046044;28;20033;-70
2021/07/08 05:35:37;;;;;;;8.50;4.53;;;;;;;16.07;78.23;101676.31;5051283;28;20024;-70
2021/07/08 05:38:03;;;;;;;9.95;4.90;;;;;;;16.08;78.17;101662.22;5060064;28;20506;-71
2021/07/08 05:40:28;;;;;;;7.95;4.05;;;;;;;16.11;78.14;101669.75;5049720;28;20037;-71
2021/07/08 05:42:54;;;;;;;9.18;3.78;;;;;;;16.19;77.94;101675.94;5064036;28;20029;-71
2021/07/08 05:45:21;;;;;;;14.07;5.18;;;;;;;16.25;77.48;101676.03;5048547;28;20036;-71
2021/07/08 05:47:46;;;;;;;6.18;3.70;;;;;;;16.30;77.50;101671.09;5051610;28;20355;-71
2021/07/08 05:50:12;;;;;;;6.15;3.38;;;;;;;16.39;77.25;101673.66;5029607;28;20033;-71
2021/07/08 05:52:37;;;;;;;10.00;4.45;;;;;;;16.48;77.50;101670.00;5049124;28;20032;-70
2021/07/08 05:55:04;;;;;;;7.95;3.33;;;;;;;16.56;77.19;101667.34;5047354;28;20036;-71
2021/07/08 05:57:30;;;;;;;9.90;3.88;;;;;;;16.65;76.90;101674.16;5048529;28;20395;-71
2021/07/08 05:59:55;;;;;;;9.40;4.13;;;;;;;16.74;76.95;101680.13;5050881;28;20044;-71
2021/07/08 06:02:21;;;;;;;6.03;3.47;;;;;;;16.85;76.71;101676.34;5047629;28;20029;-71
2021/07/08 06:04:47;;;;;;;8.63;3.67;;;;;;;16.94;76.41;101680.50;5047191;28;20040;-71
2021/07/08 06:07:12;;;;;;;8.02;3.83;;;;;;;17.05;76.17;101687.94;5047938;28;20033;-71
2021/07/08 06:09:38;;;;;;;7.80;3.65;;;;;;;17.22;75.88;101693.06;5052326;28;20433;-71
2021/07/08 06:12:04;;;;;;;7.68;3.00;;;;;;;17.37;75.35;101698.31;5051170;28;20313;-71
2021/07/08 06:14:29;;;;;;;10.48;3.65;;;;;;;17.48;74.78;101695.25;5055435;28;20037;-71
2021/07/08 06:16:55;;;;;;;5.88;3.50;;;;;;;17.63;74.27;101695.22;5073631;28;20113;-71
2021/07/08 06:19:20;;;;;;;10.40;3.20;;;;;;;17.92;73.56;101698.91;5054934;28;20146;-71
2021/07/08 06:21:48;;;;;;;9.45;4.13;;;;;;;18.17;72.87;101708.06;5058909;28;20086;-70
2021/07/08 06:24:14;;;;;;;6.57;3.30;;;;;;;18.33;72.44;101703.59;5048183;28;20499;-71
2021/07/08 06:26:40;;;;;;;8.82;3.75;;;;;;;18.43;72.22;101704.91;5070025;28;20087;-71
2021/07/08 06:29:05;;;;;;;9.95;3.75;;;;;;;18.55;71.17;101709.69;5073393;28;20020;-70
2021/07/08 06:31:31;;;;;;;16.48;3.58;;;;;;;18.81;70.19;101717.03;5052398;28;20025;-71
2021/07/08 06:33:56;;;;;;;9.35;3.00;;;;;;;19.17;69.17;101716.94;5051864;28;20041;-70
2021/07/08 06:36:22;;;;;;;9.35;3.70;;;;;;;19.53;67.99;101710.69;5076840;28;20396;-71
2021/07/08 06:38:47;;;;;;;24.02;4.40;;;;;;;19.81;66.88;101718.56;5055155;28;20684;-71
2021/07/08 06:41:13;;;;;;;14.93;3.30;;;;;;;20.09;65.97;101719.50;5073627;28;20044;-71
2021/07/08 06:43:38;;;;;;;14.55;4.03;;;;;;;20.14;65.12;101719.75;5050421;28;20154;-70
2021/07/08 06:46:04;;;;;;;15.95;4.22;;;;;;;20.12;65.59;101713.88;5050765;28;20463;-71
2021/07/08 06:48:29;;;;;;;11.93;3.72;;;;;;;20.12;65.62;101717.31;5062376;28;20024;-72
2021/07/08 06:50:55;;;;;;;15.43;4.70;;;;;;;20.01;64.92;101721.31;5064728;28;20033;-72
2021/07/08 06:53:20;;;;;;;11.52;4.00;;;;;;;20.07;65.34;101724.97;5052980;28;20047;-72
2021/07/08 06:55:47;;;;;;;16.73;5.50;;;;;;;20.28;64.70;101718.75;5063396;28;20031;-71
2021/07/08 06:58:13;;;;;;;12.45;4.93;;;;;;;20.42;63.83;101724.88;5046759;28;20044;-71
2021/07/08 07:00:41;;;;;;;9.13;3.75;;;;;;;20.46;62.86;101717.41;5055042;28;20032;-71
2021/07/08 07:03:06;;;;;;;11.38;3.65;;;;;;;20.57;62.34;101714.19;5066487;28;20479;-71
2021/07/08 07:05:32;;;;;;;17.63;3.30;;;;;;;20.76;60.56;101725.78;5071191;28;20032;-71
2021/07/08 07:07:58;;;;;;;9.85;3.17;;;;;;;20.88;60.57;101723.34;5051270;28;20166;-72
2021/07/08 07:10:26;;;;;;;10.32;3.17;;;;;;;20.88;60.34;101728.63;5051899;28;20055;-71
2021/07/08 07:12:55;;;;;;;10.38;2.83;;;;;;;20.90;60.59;101726.59;5062418;28;20287;-71
2021/07/08 07:15:24;;;;;;;11.52;2.65;;;;;;;20.80;61.37;101735.72;5051556;28;20047;-71
2021/07/08 07:17:50;;;;;;;7.03;2.63;;;;;;;20.85;61.28;101729.84;5055589;28;20097;-71
2021/07/08 07:20:17;;;;;;;6.93;2.65;;;;;;;21.13;60.83;101734.91;5054958;28;20029;-72
2021/07/08 07:22:47;;;;;;;6.68;2.40;;;;;;;21.37;60.19;101735.31;5046545;28;20467;-71
2021/07/08 07:25:19;;;;;;;7.75;2.63;;;;;;;21.55;59.25;101738.16;5051346;28;20441;-71
2021/07/08 07:27:48;;;;;;;12.23;3.17;;;;;;;21.73;59.08;101736.66;5042567;28;20418;-72
2021/07/08 07:30:14;;;;;;;9.57;3.42;;;;;;;21.50;59.16;101740.59;5045425;28;20032;-71
2021/07/08 07:32:40;;;;;;;7.47;2.95;;;;;;;21.33;59.83;101747.28;5052495;28;20029;-72
2021/07/08 07:35:06;;;;;;;11.10;3.85;;;;;;;21.29;60.13;101744.25;5050133;28;20037;-71
2021/07/08 07:37:31;;;;;;;7.05;2.90;;;;;;;21.23;60.37;101745.06;5046654;28;20029;-71
2021/07/08 07:39:57;;;;;;;9.00;2.97;;;;;;;21.52;60.09;101741.19;5053768;28;20052;-71
2021/07/08 07:42:23;;;;;;;9.75;3.05;;;;;;;21.93;58.12;101737.41;5046597;28;20024;-72
2021/07/08 07:44:50;;;;;;;6.60;2.90;;;;;;;22.39;57.79;101734.81;5054623;28;20390;-73
2021/07/08 07:47:15;;;;;;;8.32;3.38;;;;;;;22.45;56.22;101737.41;5044875;28;20040;-72
2021/07/08 07:49:42;;;;;;;5.13;3.17;;;;;;;22.50;56.93;101736.78;5033816;28;20033;-72
2021/07/08 07:52:11;;;;;;;7.78;3.70;;;;;;;22.39;58.00;101732.97;5056073;28;20120;-72
2021/07/08 07:54:36;;;;;;;7.80;3.42;;;;;;;22.19;57.95;101725.13;5051141;28;20036;-72
2021/07/08 07:57:05;;;;;;;7.65;3.33;;;;;;;22.05;57.92;101723.56;5065700;28;20394;-71
2021/07/08 07:59:34;;;;;;;7.55;3.30;;;;;;;21.85;57.69;101728.91;5067009;28;20032;-71
2021/07/08 08:02:01;;;;;;;9.88;3.80;;;;;;;21.74;58.38;101731.19;5054082;28;20028;-71
2021/07/08 08:04:32;;;;;;;4.57;3.22;;;;;;;21.63;59.40;101731.84;5051202;28;20082;-72
2021/07/08 08:09:42;;;;;;;6.93;3.35;;;;;;;21.73;60.47;101737.47;5063148;28;20033;-71
2021/07/08 08:12:09;;;;;;;5.72;3.00;;;;;;;21.81;60.22;101725.88;5050063;28;20326;-72
2021/07/08 08:14:34;;;;;;;7.03;3.00;;;;;;;21.95;59.93;101732.75;5052662;28;20037;-71
2021/07/08 08:17:00;;;;;;;12.25;3.50;;;;;;;22.27;58.76;101730.19;5051014;28;20039;-71
2021/07/08 08:19:25;;;;;;;8.55;4.35;;;;;;;22.60;54.86;101731.81;5050797;28;20037;-71
2021/07/08 08:21:51;;;;;;;7.57;3.67;;;;;;;22.59;55.47;101735.50;5049816;28;20104;-72
2021/07/08 08:24:17;;;;;;;9.40;3.90;;;;;;;22.74;56.30;101740.47;5054590;28;20082;-71
2021/07/08 08:26:43;;;;;;;12.55;4.43;;;;;;;22.81;56.81;101738.59;5067038;28;20028;-71
2021/07/08 08:29:08;;;;;;;8.05;3.40;;;;;;;23.04;56.29;101735.38;5053887;28;20040;-72
2021/07/08 08:31:34;;;;;;;9.82;3.88;;;;;;;23.11;55.91;101741.44;5053298;28;20171;-72
2021/07/08 08:33:59;;;;;;;6.97;3.20;;;;;;;23.52;55.01;101736.56;5051501;28;20037;-72
2021/07/08 08:36:25;;;;;;;7.80;4.05;;;;;;;23.65;53.63;101736.41;5056600;28;20483;-72
2021/07/08 08:38:50;;;;;;;5.25;3.30;;;;;;;23.60;53.62;101727.50;5052307;28;20033;-72
2021/07/08 08:41:16;;;;;;;10.38;4.20;;;;;;;23.42;53.66;101728.34;5050426;28;20040;-72
2021/07/08 08:43:41;;;;;;;8.95;4.15;;;;;;;23.16;53.44;101732.03;5053952;28;20037;-71
2021/07/08 08:46:07;;;;;;;8.18;3.70;;;;;;;23.13;52.87;101728.81;5052786;28;20463;-71
2021/07/08 08:48:34;;;;;;;8.43;2.90;;;;;;;23.12;52.98;101726.38;5063730;28;20037;-72
2021/07/08 08:51:00;;;;;;;7.07;3.28;;;;;;;23.25;53.21;101733.38;5047723;28;20037;-71
2021/07/08 08:53:26;;;;;;;7.75;3.75;;;;;;;23.53;52.27;101735.53;5050401;28;20082;-72
2021/07/08 08:55:51;;;;;;;11.35;4.35;;;;;;;23.94;50.37;101747.34;5050679;28;20033;-71
2021/07/08 08:58:20;;;;;;;5.80;3.08;;;;;;;24.34;50.41;101748.66;5049518;28;20503;-72
2021/07/08 09:00:51;;;;;;;9.88;3.72;;;;;;;24.96;48.90;101754.47;5054205;28;20040;-72
2021/07/08 09:03:20;;;;;;;6.93;3.63;;;;;;;25.42;48.55;101754.75;5064884;28;20043;-71
2021/07/08 09:05:55;;;;;;;14.43;4.22;;;;;;;25.96;47.28;101750.03;5051848;28;20025;-72
2021/07/08 09:08:22;;;;;;;5.45;3.70;;;;;;;25.88;46.59;101752.22;5066073;28;20036;-72
2021/07/08 09:11:08;;;;;;;7.85;3.15;;;;;;;26.16;47.09;101752.28;5062746;28;20052;-72
2021/07/08 09:13:44;;;;;;;7.30;3.33;;;;;;;26.25;48.89;101754.56;5047257;28;20040;-72
2021/07/08 09:16:14;;;;;;;10.82;3.35;;;;;;;26.25;46.06;101757.22;5051081;28;20048;-72
2021/07/08 09:18:40;;;;;;;9.10;2.97;;;;;;;26.18;46.52;101763.47;5051492;28;20052;-72
2021/07/08 09:21:16;;;;;;;7.22;2.28;;;;;;;25.97;44.06;101758.81;5049488;28;20475;-71
2021/07/08 09:24:06;;;;;;;5.35;2.58;;;;;;;25.59;47.03;101760.94;5064957;28;20048;-72
2021/07/08 09:26:33;;;;;;;4.65;2.10;;;;;;;25.80;47.13;101751.53;5063843;28;20025;-72
2021/07/08 09:29:07;;;;;;;3.63;1.92;;;;;;;25.90;46.58;101739.50;5045120;28;20090;-71
2021/07/08 09:31:35;;;;;;;5.93;2.40;;;;;;;26.06;44.01;101738.00;5068267;28;20504;-73
2021/07/08 09:34:39;;;;;;;4.00;1.90;;;;;;;26.37;44.46;101734.03;5046406;28;20036;-74
2021/07/08 09:37:09;;;;;;;8.77;2.58;;;;;;;26.42;44.51;101734.91;5041669;28;20423;-74
2021/07/08 09:39:38;;;;;;;6.80;2.38;;;;;;;26.71;44.54;101750.88;5043223;28;20043;-74
2021/07/08 09:42:05;;;;;;;8.05;2.65;;;;;;;26.26;44.06;101759.63;5044319;28;20083;-73
2021/07/08 09:44:31;;;;;;;4.82;2.28;;;;;;;26.24;44.48;101761.72;5058546;28;20028;-75
2021/07/08 09:46:57;;;;;;;9.30;2.40;;;;;;;26.35;44.17;101758.22;5045101;28;20510;-74
2021/07/08 09:49:25;;;;;;;8.07;2.50;;;;;;;26.02;44.73;101749.09;5043217;28;20071;-74
2021/07/08 09:51:52;;;;;;;6.35;3.03;;;;;;;26.04;44.44;101748.84;5046531;28;20082;-74
2021/07/08 09:55:13;;;;;;;6.75;2.72;;;;;;;26.01;45.82;101744.84;5049449;28;20391;-74
2021/07/08 09:57:33;;;;;;;5.18;2.40;;;;;;;26.04;45.89;101746.19;5047567;28;20045;-74
2021/07/08 09:59:59;;;;;;;6.93;2.78;;;;;;;26.15;44.74;101749.88;5060209;28;20033;-73
2021/07/08 10:02:30;;;;;;;6.50;2.65;;;;;;;26.13;43.46;101750.09;5028297;28;20017;-74
2021/07/08 10:04:57;;;;;;;5.65;2.75;;;;;;;26.12;44.10;101758.28;5046116;28;20025;-74
2021/07/08 10:07:24;;;;;;;12.35;2.97;;;;;;;26.06;45.16;101752.09;5046900;28;20037;-73
2021/07/08 10:09:50;;;;;;;9.35;2.70;;;;;;;26.14;44.32;101751.69;5034390;28;20170;-73
2021/07/08 10:12:15;;;;;;;12.10;3.08;;;;;;;26.16;45.48;101746.16;5053352;28;20030;-75
2021/07/08 10:14:43;;;;;;;8.48;2.80;;;;;;;26.19;44.35;101733.19;5050709;28;20044;-74
2021/07/08 10:17:11;;;;;;;6.03;3.42;;;;;;;26.13;46.21;101741.31;5061407;28;20028;-74
2021/07/08 10:19:37;;;;;;;7.10;2.67;;;;;;;26.30;46.03;101728.88;5063237;28;20111;-75
2021/07/08 10:22:03;;;;;;;6.68;2.70;;;;;;;26.36;45.26;101732.44;5055803;28;20240;-74
2021/07/08 10:24:29;;;;;;;3.42;2.40;;;;;;;26.34;44.89;101723.88;5048980;28;20029;-74
2021/07/08 10:26:56;;;;;;;8.60;2.47;;;;;;;26.18;45.70;101718.31;5044632;28;20032;-74
2021/07/08 10:29:23;;;;;;;4.38;2.60;;;;;;;26.01;46.01;101723.56;5046409;28;20039;-74
2021/07/08 10:31:50;;;;;;;7.22;2.80;;;;;;;25.91;45.83;101723.34;5043723;28;20116;-75
2021/07/08 10:34:16;;;;;;;10.75;3.17;;;;;;;25.83;46.79;101723.72;5038037;28;20147;-74
2021/07/08 10:36:45;;;;;;;4.78;2.70;;;;;;;25.77;47.83;101720.16;5050206;28;20060;-73
2021/07/08 10:39:38;;;;;;;5.45;3.30;;;;;;;25.82;47.05;101714.13;5040516;28;20041;-74
2021/07/08 10:42:04;;;;;;;17.35;3.47;;;;;;;25.90;48.06;101716.44;5049874;28;20107;-74
2021/07/08 10:44:47;;;;;;;5.78;2.67;;;;;;;26.07;45.68;101715.69;5050694;28;20575;-73
2021/07/08 10:47:29;;;;;;;;;;;;;;;26.05;46.07;101723.09;5050592;28;20434;-73
2021/07/08 10:49:54;;;;;;;6.88;2.45;;;;;;;26.07;47.82;101713.84;5046997;28;20004;-74
2021/07/08 10:52:47;;;;;;;6.50;2.72;;;;;;;26.20;47.33;101726.84;5046654;28;20076;-74
2021/07/08 10:55:53;;;;;;;7.13;1.97;;;;;;;26.29;45.30;101711.28;5040478;28;20415;-75
2021/07/08 10:58:41;;;;;;;7.18;3.10;;;;;;;26.29;43.62;101716.63;4965471;28;20046;-75
2021/07/08 11:01:09;;;;;;;4.18;2.00;;;;;;;26.26;44.63;101716.28;5047086;28;20045;-74
2021/07/08 11:03:38;;;;;;;3.78;1.98;;;;;;;26.55;45.67;101719.72;5051411;28;20024;-74
2021/07/08 11:06:10;;;;;;;5.68;2.00;;;;;;;26.54;46.22;101708.28;5046438;28;20039;-74
2021/07/08 11:08:45;;;;;;;3.97;2.10;;;;;;;26.33;43.51;101707.09;5053096;28;20558;-74
2021/07/08 11:11:33;;;;;;;5.63;2.00;;;;;;;26.10;46.85;101701.94;5052706;28;20102;-73
2021/07/08 11:14:08;;;;;;;4.80;2.45;;;;;;;26.00;47.48;101700.69;5038002;28;20123;-74
2021/07/08 11:16:49;;;;;;;5.95;2.60;;;;;;;26.15;47.51;101694.84;5068227;28;20406;-75
2021/07/08 11:19:20;;;;;;;5.07;2.38;;;;;;;26.44;46.31;101707.28;5053818;28;20479;-73
2021/07/08 11:21:56;;;;;;;6.45;2.22;;;;;;;26.23;45.01;101721.03;5020994;28;20086;-75
2021/07/08 11:24:23;;;;;;;3.78;2.03;;;;;;;26.01;46.09;101723.56;5027846;28;20055;-74
2021/07/08 11:26:53;;;;;;;8.85;3.03;;;;;;;25.94;46.24;101730.06;5057343;28;20116;-75
2021/07/08 11:29:31;;;;;;;4.63;2.17;;;;;;;26.07;45.59;101729.78;5047633;28;20041;-75